createdAt,value
2023-04-15T00:00:56.192Z,4.00
2023-04-15T00:03:22.859Z,7.23
2023-04-15T00:05:49.530Z,4.77
2023-04-15T00:08:15.986Z,8.53
2023-04-15T00:10:44.168Z,5.30
2023-04-15T00:13:10.650Z,8.97
2023-04-15T00:15:37.786Z,5.60
2023-04-15T00:18:04.473Z,5.37
2023-04-15T00:20:31.333Z,6.37
2023-04-15T00:22:58.923Z,5.23
2023-04-15T00:25:25.266Z,3.40
2023-04-15T00:27:51.750Z,5.77
2023-04-15T00:30:18.931Z,3.53
2023-04-15T00:32:45.555Z,3.70
2023-04-15T00:35:12.139Z,3.57
2023-04-15T00:37:38.571Z,4.73
2023-04-15T00:40:05.540Z,4.13
2023-04-15T00:42:32.041Z,7.07
2023-04-15T00:44:58.509Z,5.87
2023-04-15T00:47:26.164Z,5.23
2023-04-15T00:49:52.738Z,4.53
2023-04-15T00:52:19.192Z,5.50
2023-04-15T00:54:45.589Z,3.20
2023-04-15T00:57:12.041Z,5.17
2023-04-15T00:59:38.550Z,3.27
2023-04-15T01:02:05.653Z,4.23
2023-04-15T01:04:32.614Z,4.40
2023-04-15T01:06:59.183Z,3.83
2023-04-15T01:09:25.588Z,4.60
2023-04-15T01:11:52.385Z,2.73
2023-04-15T01:14:19.670Z,4.10
2023-04-15T01:16:46.924Z,4.97
2023-04-15T01:19:16.541Z,5.00
2023-04-15T01:21:43.233Z,2.87
2023-04-15T01:24:11.131Z,5.93
2023-04-15T01:26:38.564Z,5.13
2023-04-15T01:29:04.882Z,4.60
2023-04-15T01:31:31.177Z,2.80
2023-04-15T01:33:58.444Z,4.73
2023-04-15T01:36:24.856Z,3.57
2023-04-15T01:38:51.871Z,4.27
2023-04-15T01:41:25.339Z,4.70
2023-04-15T01:43:52.474Z,2.83
2023-04-15T01:46:19.111Z,4.13
2023-04-15T01:48:45.752Z,5.47
2023-04-15T01:51:12.249Z,5.13
2023-04-15T01:53:38.651Z,4.20
2023-04-15T01:56:05.203Z,5.77
2023-04-15T01:58:31.668Z,3.70
2023-04-15T02:00:58.080Z,4.70
2023-04-15T02:03:25.406Z,4.13
2023-04-15T02:05:52.244Z,3.87
2023-04-15T02:08:18.647Z,3.27
2023-04-15T02:10:44.974Z,3.17
2023-04-15T02:13:11.478Z,5.60
2023-04-15T02:15:38.137Z,4.13
2023-04-15T02:18:04.729Z,3.10
2023-04-15T02:20:31.068Z,7.77
2023-04-15T02:22:57.504Z,4.63
2023-04-15T02:25:24.013Z,4.37
2023-04-15T02:27:50.616Z,7.10
2023-04-15T02:30:17.088Z,7.17
2023-04-15T02:32:44.879Z,3.03
2023-04-15T02:35:11.577Z,7.17
2023-04-15T02:37:43.313Z,5.33
2023-04-15T02:40:13.384Z,5.17
2023-04-15T02:42:40.392Z,5.00
2023-04-15T02:45:07.928Z,4.00
2023-04-15T02:47:36.066Z,3.80
2023-04-15T02:50:03.753Z,5.57
2023-04-15T02:52:30.319Z,3.40
2023-04-15T02:55:00.563Z,4.60
2023-04-15T02:57:29.020Z,3.00
2023-04-15T02:59:55.805Z,5.10
2023-04-15T03:02:22.367Z,5.63
2023-04-15T03:04:49.118Z,2.60
2023-04-15T03:07:15.555Z,3.70
2023-04-15T03:09:42.093Z,3.13
2023-04-15T03:12:08.448Z,3.50
2023-04-15T03:14:34.891Z,4.20
2023-04-15T03:17:01.328Z,4.10
2023-04-15T03:19:27.667Z,6.23
2023-04-15T03:21:54.185Z,8.63
2023-04-15T03:24:20.665Z,4.20
2023-04-15T03:26:47.040Z,3.70
2023-04-15T03:29:13.538Z,5.77
2023-04-15T03:31:40.028Z,8.63
2023-04-15T03:34:06.552Z,2.47
2023-04-15T03:36:33.316Z,4.33
2023-04-15T03:39:00.053Z,6.40
2023-04-15T03:41:26.602Z,5.03
2023-04-15T03:43:53.117Z,2.70
2023-04-15T03:46:19.862Z,2.87
2023-04-15T03:48:47.284Z,5.53
2023-04-15T03:51:13.702Z,3.23
2023-04-15T03:53:40.311Z,4.33
2023-04-15T03:56:06.941Z,7.77
2023-04-15T03:58:33.226Z,4.00
2023-04-15T04:00:59.759Z,2.83
2023-04-15T04:03:26.295Z,3.17
2023-04-15T04:05:52.844Z,2.80
2023-04-15T04:08:20.350Z,4.33
2023-04-15T04:10:46.771Z,4.00
2023-04-15T04:13:15.652Z,4.27
2023-04-15T04:15:41.980Z,4.40
2023-04-15T04:18:08.373Z,6.20
2023-04-15T04:20:35.565Z,2.83
2023-04-15T04:23:01.964Z,6.07
2023-04-15T04:25:28.321Z,5.60
2023-04-15T04:27:55.524Z,5.00
2023-04-15T04:30:22.178Z,3.93
2023-04-15T04:32:51.610Z,5.27
2023-04-15T04:35:18.038Z,5.30
2023-04-15T04:37:44.404Z,3.37
2023-04-15T04:40:11.373Z,5.10
2023-04-15T04:42:39.821Z,6.20
2023-04-15T04:45:07.394Z,3.90
2023-04-15T04:47:33.978Z,4.07
2023-04-15T04:50:00.487Z,4.87
2023-04-15T04:52:26.853Z,4.33
2023-04-15T04:54:53.296Z,7.27
2023-04-15T04:57:19.642Z,5.50
2023-04-15T04:59:46.513Z,5.03
2023-04-15T05:02:13.070Z,4.47
2023-04-15T05:04:39.550Z,5.67
2023-04-15T05:07:06.078Z,3.50
2023-04-15T05:09:33.097Z,8.23
2023-04-15T05:11:59.427Z,4.93
2023-04-15T05:14:25.967Z,6.77
2023-04-15T05:16:52.438Z,5.27
2023-04-15T05:19:18.773Z,3.87
2023-04-15T05:21:45.196Z,4.97
2023-04-15T05:24:11.615Z,5.10
2023-04-15T05:26:37.946Z,3.47
2023-04-15T05:29:04.462Z,5.53
2023-04-15T05:31:31.417Z,4.37
2023-04-15T05:33:58.956Z,4.83
2023-04-15T05:36:26.470Z,5.83
2023-04-15T05:38:52.845Z,4.83
2023-04-15T05:41:20.029Z,3.33
2023-04-15T05:43:46.600Z,5.13
2023-04-15T05:46:13.119Z,4.20
2023-04-15T05:48:39.596Z,6.27
2023-04-15T05:51:06.452Z,5.47
2023-04-15T05:53:32.986Z,6.13
2023-04-15T05:55:59.474Z,11.70
2023-04-15T05:58:26.002Z,5.67
2023-04-15T06:00:52.998Z,5.13
2023-04-15T06:03:19.759Z,4.30
2023-04-15T06:05:46.160Z,6.07
2023-04-15T06:08:12.549Z,6.23
2023-04-15T06:10:38.904Z,6.93
2023-04-15T06:13:05.780Z,9.50
2023-04-15T06:15:32.256Z,6.63
2023-04-15T06:17:58.859Z,7.70
2023-04-15T06:20:25.489Z,5.83
2023-04-15T06:22:52.141Z,5.37
2023-04-15T06:25:18.560Z,7.77
2023-04-15T06:27:44.894Z,6.43
2023-04-15T06:30:12.022Z,4.73
2023-04-15T06:32:38.573Z,9.27
2023-04-15T06:35:05.516Z,8.97
2023-04-15T06:37:32.615Z,5.60
2023-04-15T06:39:59.094Z,7.43
2023-04-15T06:42:25.760Z,9.13
2023-04-15T06:44:52.176Z,6.17
2023-04-15T06:47:19.865Z,5.97
2023-04-15T06:49:46.371Z,7.30
2023-04-15T06:52:12.990Z,8.03
2023-04-15T06:54:39.567Z,6.10
2023-04-15T06:57:07.097Z,5.63
2023-04-15T06:59:33.505Z,5.00
2023-04-15T07:01:59.960Z,6.27
2023-04-15T07:04:26.412Z,6.10
2023-04-15T07:06:52.842Z,5.53
2023-04-15T07:09:19.860Z,5.13
2023-04-15T07:11:46.169Z,7.07
2023-04-15T07:14:12.657Z,6.10
2023-04-15T07:16:39.099Z,5.53
2023-04-15T07:19:05.794Z,5.40
2023-04-15T07:21:32.529Z,6.33
2023-04-15T07:23:58.836Z,3.70
2023-04-15T07:26:25.167Z,4.80
2023-04-15T07:28:51.642Z,5.40
2023-04-15T07:31:18.148Z,5.80
2023-04-15T07:33:44.662Z,6.20
2023-04-15T07:36:11.153Z,4.50
2023-04-15T07:38:37.531Z,5.70
2023-04-15T07:41:04.992Z,4.77
2023-04-15T07:43:31.381Z,4.30
2023-04-15T07:45:57.801Z,5.10
2023-04-15T07:48:24.213Z,3.70
2023-04-15T07:50:50.573Z,4.00
2023-04-15T07:53:16.992Z,4.90
2023-04-15T07:55:43.412Z,3.23
2023-04-15T07:58:09.849Z,5.93
2023-04-15T08:00:38.245Z,4.27
2023-04-15T08:03:04.917Z,4.17
2023-04-15T08:05:31.405Z,4.13
2023-04-15T08:07:58.554Z,6.40
2023-04-15T08:10:24.999Z,4.97
2023-04-15T08:12:54.183Z,2.47
2023-04-15T08:15:21.486Z,2.67
2023-04-15T08:17:47.940Z,3.47
2023-04-15T08:20:14.461Z,2.70
2023-04-15T08:22:41.464Z,2.40
2023-04-15T08:25:09.116Z,2.50
2023-04-15T08:27:36.008Z,2.10
2023-04-15T08:30:04.595Z,2.00
2023-04-15T08:32:32.162Z,3.87
2023-04-15T08:34:58.590Z,2.40
2023-04-15T08:37:25.132Z,3.63
2023-04-15T08:39:54.893Z,2.33
2023-04-15T08:42:28.046Z,2.67
2023-04-15T08:44:55.589Z,2.30
2023-04-15T08:47:24.393Z,1.93
2023-04-15T08:49:54.252Z,2.07
2023-04-15T08:52:20.931Z,2.97
2023-04-15T08:54:48.138Z,1.83
2023-04-15T08:57:15.489Z,1.80
2023-04-15T08:59:43.587Z,1.70
2023-04-15T09:02:10.613Z,3.03
2023-04-15T09:04:37.031Z,1.43
2023-04-15T09:07:03.475Z,1.60
2023-04-15T09:09:29.875Z,1.50
2023-04-15T09:11:56.720Z,2.03
2023-04-15T09:14:23.277Z,1.70
2023-04-15T09:17:03.805Z,1.80
2023-04-15T09:19:31.499Z,1.90
2023-04-15T09:21:59.640Z,3.17
2023-04-15T09:24:33.837Z,1.80
2023-04-15T09:27:00.475Z,2.23
2023-04-15T09:29:26.921Z,1.93
2023-04-15T09:31:53.406Z,2.00
2023-04-15T09:34:20.221Z,2.97
2023-04-15T09:36:46.814Z,2.40
2023-04-15T09:39:14.345Z,2.40
2023-04-15T09:41:40.916Z,2.57
2023-04-15T09:44:07.325Z,2.30
2023-04-15T09:46:44.134Z,1.93
2023-04-15T09:49:12.183Z,2.27
2023-04-15T09:51:38.868Z,2.17
2023-04-15T09:54:05.819Z,3.27
2023-04-15T09:56:36.081Z,2.13
2023-04-15T09:59:02.576Z,1.77
2023-04-15T10:01:29.703Z,2.10
2023-04-15T10:03:57.927Z,2.33
2023-04-15T10:06:26.896Z,1.80
2023-04-15T10:08:54.292Z,1.83
2023-04-15T10:11:23.960Z,2.50
2023-04-15T10:13:51.211Z,10.13
2023-04-15T10:16:21.125Z,2.83
2023-04-15T10:18:53.330Z,3.00
2023-04-15T10:21:20.813Z,2.63
2023-04-15T10:23:47.673Z,3.00
2023-04-15T10:26:15.532Z,2.70
2023-04-15T10:28:42.098Z,5.80
2023-04-15T10:31:11.834Z,2.50
2023-04-15T10:33:39.612Z,2.63
2023-04-15T10:36:07.794Z,2.47
2023-04-15T10:38:43.221Z,2.60
2023-04-15T10:41:33.327Z,2.10
2023-04-15T10:43:59.934Z,2.67
2023-04-15T10:46:43.931Z,2.90
2023-04-15T10:49:24.368Z,2.50
2023-04-15T10:51:58.845Z,2.50
2023-04-15T10:54:25.328Z,2.27
2023-04-15T10:57:07.181Z,2.60
2023-04-15T10:59:38.047Z,2.40
2023-04-15T11:02:07.234Z,3.50
2023-04-15T11:04:56.279Z,3.30
2023-04-15T11:07:44.679Z,2.53
2023-04-15T11:10:14.076Z,2.50
2023-04-15T11:12:41.030Z,2.37
2023-04-15T11:15:31.008Z,2.23
2023-04-15T11:17:59.322Z,3.67
2023-04-15T11:20:26.118Z,2.23
2023-04-15T11:23:08.333Z,2.30
2023-04-15T11:25:40.813Z,2.30
2023-04-15T11:28:10.214Z,3.17
2023-04-15T11:30:37.965Z,2.30
2023-04-15T11:33:06.785Z,2.50
2023-04-15T11:35:33.752Z,2.37
2023-04-15T11:38:04.060Z,2.53
2023-04-15T11:40:31.487Z,2.37
2023-04-15T11:43:24.424Z,2.30
2023-04-15T11:46:00.942Z,2.30
2023-04-15T11:48:33.154Z,2.10
2023-04-15T11:51:01.920Z,2.40
2023-04-15T11:53:48.587Z,2.30
2023-04-15T11:56:18.823Z,2.07
2023-04-15T11:58:46.393Z,2.30
2023-04-15T12:01:13.032Z,2.17
2023-04-15T12:03:45.427Z,3.10
2023-04-15T12:06:21.824Z,2.17
2023-04-15T12:09:04.752Z,2.00
2023-04-15T12:11:44.548Z,2.37
2023-04-15T12:14:12.743Z,2.40
2023-04-15T12:16:48.891Z,2.70
2023-04-15T12:19:22.842Z,2.47
2023-04-15T12:21:49.432Z,3.30
2023-04-15T12:24:20.980Z,2.30
2023-04-15T12:26:53.674Z,2.43
2023-04-15T12:29:24.715Z,2.23
2023-04-15T12:31:58.942Z,2.23
2023-04-15T12:34:33.638Z,2.33
2023-04-15T12:37:01.625Z,2.93
2023-04-15T12:39:32.635Z,2.70
2023-04-15T12:42:00.351Z,2.97
2023-04-15T12:44:28.034Z,2.30
2023-04-15T12:46:54.834Z,4.60
2023-04-15T12:49:22.399Z,2.90
2023-04-15T12:51:50.404Z,2.97
2023-04-15T12:54:19.986Z,3.20
2023-04-15T12:56:47.480Z,5.20
2023-04-15T12:59:15.368Z,3.23
2023-04-15T13:01:41.861Z,2.90
2023-04-15T13:04:08.865Z,3.07
2023-04-15T13:06:36.182Z,2.80
2023-04-15T13:09:05.632Z,3.90
2023-04-15T13:11:33.963Z,5.57
2023-04-15T13:14:01.804Z,5.00
2023-04-15T13:16:28.399Z,3.50
2023-04-15T13:18:54.912Z,5.20
2023-04-15T13:21:21.268Z,4.57
2023-04-15T13:23:49.814Z,4.67
2023-04-15T13:26:16.378Z,4.30
2023-04-15T13:28:42.827Z,4.83
2023-04-15T13:31:09.206Z,4.87
2023-04-15T13:33:35.738Z,4.17
2023-04-15T13:36:02.244Z,5.67
2023-04-15T13:38:28.549Z,5.23
2023-04-15T13:40:55.062Z,5.80
2023-04-15T13:43:21.614Z,6.53
2023-04-15T13:45:48.145Z,5.53
2023-04-15T13:48:14.681Z,5.37
2023-04-15T13:50:45.117Z,5.03
2023-04-15T13:53:12.888Z,6.10
2023-04-15T13:55:42.734Z,6.27
2023-04-15T13:58:10.197Z,6.73
2023-04-15T14:00:36.712Z,6.40
2023-04-15T14:03:03.548Z,6.87
2023-04-15T14:05:30.360Z,7.00
2023-04-15T14:07:56.798Z,6.70
2023-04-15T14:10:23.228Z,8.07
2023-04-15T14:12:49.686Z,6.33
2023-04-15T14:15:16.260Z,6.57
2023-04-15T14:17:42.768Z,6.47
2023-04-15T14:20:09.820Z,7.37
2023-04-15T14:22:36.288Z,6.10
2023-04-15T14:25:02.772Z,5.90
2023-04-15T14:27:29.286Z,5.97
2023-04-15T14:29:55.646Z,5.90
2023-04-15T14:32:22.009Z,5.60
2023-04-15T14:34:48.378Z,5.77
2023-04-15T14:37:14.687Z,5.60
2023-04-15T14:39:41.092Z,5.10
2023-04-15T14:42:07.543Z,5.20
2023-04-15T14:44:34.029Z,4.77
2023-04-15T14:47:00.678Z,4.83
2023-04-15T14:49:27.341Z,4.20
2023-04-15T14:51:53.668Z,4.10
2023-04-15T14:54:21.918Z,4.13
2023-04-15T14:56:48.787Z,3.63
2023-04-15T14:59:15.270Z,3.93
2023-04-15T15:01:41.715Z,4.00
2023-04-15T15:04:10.328Z,4.00
2023-04-15T15:06:36.882Z,4.20
2023-04-15T15:09:03.754Z,3.77
2023-04-15T15:11:30.384Z,3.33
2023-04-15T15:13:57.067Z,4.10
2023-04-15T15:16:23.591Z,3.80
2023-04-15T15:18:51.298Z,4.77
2023-04-15T15:21:18.433Z,3.50
2023-04-15T15:23:45.228Z,3.80
2023-04-15T15:26:12.392Z,3.70
2023-04-15T15:28:38.787Z,3.57
2023-04-15T15:31:05.513Z,3.77
2023-04-15T15:33:32.806Z,3.70
2023-04-15T15:35:59.362Z,3.40
2023-04-15T15:38:26.214Z,3.70
2023-04-15T15:40:52.748Z,3.63
2023-04-15T15:43:19.097Z,4.37
2023-04-15T15:45:45.780Z,4.23
2023-04-15T15:48:12.404Z,4.30
2023-04-15T15:50:38.906Z,4.30
2023-04-15T15:53:05.307Z,4.37
2023-04-15T15:55:31.778Z,3.73
2023-04-15T15:57:58.175Z,3.87
2023-04-15T16:00:24.615Z,4.40
2023-04-15T16:03:06.775Z,5.50
2023-04-15T16:05:34.385Z,5.53
2023-04-15T16:08:00.840Z,3.80
2023-04-15T16:10:27.794Z,3.07
2023-04-15T16:12:54.341Z,3.63
2023-04-15T16:15:22.555Z,5.03
2023-04-15T16:17:49.007Z,3.10
2023-04-15T16:20:15.629Z,5.40
2023-04-15T16:22:42.210Z,4.37
2023-04-15T16:25:09.038Z,2.80
2023-04-15T16:27:43.523Z,3.87
2023-04-15T16:30:22.260Z,2.57
2023-04-15T16:32:48.765Z,3.30
2023-04-15T16:35:16.790Z,2.80
2023-04-15T16:37:43.227Z,3.03
2023-04-15T16:40:10.078Z,3.67
2023-04-15T16:42:36.776Z,3.27
2023-04-15T16:45:03.458Z,3.17
2023-04-15T16:47:29.789Z,3.00
2023-04-15T16:49:56.190Z,3.17
2023-04-15T16:52:22.749Z,5.60
2023-04-15T16:54:49.074Z,4.43
2023-04-15T16:57:15.418Z,3.30
2023-04-15T16:59:41.799Z,3.57
2023-04-15T17:02:12.292Z,4.63
2023-04-15T17:04:39.712Z,3.00
2023-04-15T17:07:06.690Z,3.17
2023-04-15T17:09:33.044Z,3.33
2023-04-15T17:11:59.493Z,3.80
2023-04-15T17:14:27.649Z,4.00
2023-04-15T17:16:54.190Z,4.70
2023-04-15T17:19:20.617Z,4.67
2023-04-15T17:21:47.087Z,6.37
2023-04-15T17:24:13.460Z,5.13
2023-04-15T17:26:39.863Z,5.70
2023-04-15T17:29:06.778Z,5.17
2023-04-15T17:31:33.493Z,5.53
2023-04-15T17:34:07.161Z,5.87
2023-04-15T17:36:36.583Z,6.00
2023-04-15T17:39:03.564Z,5.33
2023-04-15T17:41:30.174Z,5.17
2023-04-15T17:43:56.508Z,5.27
2023-04-15T17:46:22.818Z,7.27
2023-04-15T17:48:49.439Z,5.80
2023-04-15T17:51:17.056Z,5.70
2023-04-15T17:53:43.398Z,5.30
2023-04-15T17:56:09.820Z,6.20
2023-04-15T17:58:36.209Z,5.70
2023-04-15T18:01:02.854Z,6.17
2023-04-15T18:03:29.284Z,8.47
2023-04-15T18:05:55.934Z,6.70
2023-04-15T18:08:22.293Z,6.57
2023-04-15T18:10:48.639Z,8.07
2023-04-15T18:13:15.027Z,7.40
2023-04-15T18:15:41.508Z,7.37
2023-04-15T18:18:07.901Z,7.60
2023-04-15T18:20:34.363Z,7.83
2023-04-15T18:23:00.796Z,8.63
2023-04-15T18:25:27.201Z,9.40
2023-04-15T18:27:55.001Z,10.77
2023-04-15T18:30:21.381Z,9.40
2023-04-15T18:32:47.784Z,9.33
2023-04-15T18:35:14.338Z,9.77
2023-04-15T18:37:40.696Z,8.87
2023-04-15T18:40:07.681Z,8.53
2023-04-15T18:42:34.234Z,9.53
2023-04-15T18:45:00.801Z,9.77
2023-04-15T18:47:27.844Z,11.23
2023-04-15T18:49:54.406Z,10.03
2023-04-15T18:52:21.236Z,12.30
2023-04-15T18:54:47.575Z,10.03
2023-04-15T18:57:14.027Z,13.63
2023-04-15T18:59:46.740Z,10.33
2023-04-15T19:02:13.165Z,11.27
2023-04-15T19:04:39.714Z,10.03
2023-04-15T19:07:07.236Z,11.10
2023-04-15T19:09:33.927Z,10.67
2023-04-15T19:12:00.269Z,11.30
2023-04-15T19:14:26.651Z,11.80
2023-04-15T19:16:53.315Z,11.77
2023-04-15T19:19:19.917Z,11.60
2023-04-15T19:21:49.703Z,11.60
2023-04-15T19:24:17.998Z,12.33
2023-04-15T19:26:47.079Z,12.13
2023-04-15T19:29:13.470Z,11.07
2023-04-15T19:31:40.343Z,12.17
2023-04-15T19:34:06.757Z,11.97
2023-04-15T19:36:33.400Z,11.77
2023-04-15T19:39:03.338Z,10.80
2023-04-15T19:41:29.796Z,10.30
2023-04-15T19:43:56.295Z,11.33
2023-04-15T19:46:23.251Z,11.30
2023-04-15T19:48:49.711Z,11.37
2023-04-15T19:51:16.043Z,14.37
2023-04-15T19:53:42.504Z,10.53
2023-04-15T19:56:09.163Z,11.77
2023-04-15T19:58:35.534Z,12.03
2023-04-15T20:01:02.273Z,11.13
2023-04-15T20:03:28.890Z,12.87
2023-04-15T20:05:55.362Z,12.80
2023-04-15T20:08:21.761Z,14.23
2023-04-15T20:10:48.205Z,14.77
2023-04-15T20:13:14.615Z,14.80
2023-04-15T20:15:41.148Z,14.57
2023-04-15T20:18:07.556Z,16.27
2023-04-15T20:20:34.775Z,16.33
2023-04-15T20:23:01.136Z,16.67
2023-04-15T20:25:27.745Z,17.63
2023-04-15T20:27:54.107Z,17.70
2023-04-15T20:30:20.594Z,17.33
2023-04-15T20:32:47.105Z,18.03
2023-04-15T20:35:13.689Z,18.10
2023-04-15T20:37:40.496Z,18.40
2023-04-15T20:40:07.461Z,19.53
2023-04-15T20:42:36.793Z,19.20
2023-04-15T20:45:03.841Z,19.23
2023-04-15T20:47:30.404Z,19.23
2023-04-15T20:49:56.889Z,18.57
2023-04-15T20:52:23.220Z,19.07
2023-04-15T20:54:50.207Z,18.43
2023-04-15T20:57:17.018Z,16.57
2023-04-15T20:59:43.431Z,18.10
2023-04-15T21:02:09.881Z,18.40
2023-04-15T21:04:38.055Z,19.67
2023-04-15T21:07:04.498Z,18.17
2023-04-15T21:09:30.818Z,19.50
2023-04-15T21:12:01.574Z,20.20
2023-04-15T21:14:28.976Z,23.47
2023-04-15T21:16:57.176Z,21.23
2023-04-15T21:19:23.608Z,22.80
2023-04-15T21:21:49.952Z,23.23
2023-04-15T21:24:16.372Z,23.80
2023-04-15T21:26:42.799Z,20.50
2023-04-15T21:29:11.356Z,19.83
2023-04-15T21:31:38.491Z,18.67
2023-04-15T21:34:05.274Z,18.03
2023-04-15T21:36:32.152Z,21.53
2023-04-15T21:38:58.611Z,15.90
2023-04-15T21:41:25.349Z,18.33
2023-04-15T21:43:51.830Z,17.77
2023-04-15T21:46:21.794Z,14.20
2023-04-15T21:48:52.258Z,12.90
2023-04-15T21:51:18.854Z,16.97
2023-04-15T21:53:45.262Z,16.37
2023-04-15T21:56:11.978Z,14.77
2023-04-15T21:58:38.428Z,13.67
2023-04-15T22:01:05.002Z,15.53
2023-04-15T22:03:34.055Z,14.93
2023-04-15T22:06:02.377Z,19.40
2023-04-15T22:08:29.131Z,17.10
2023-04-15T22:10:55.608Z,17.77
2023-04-15T22:13:22.039Z,17.10
2023-04-15T22:15:48.417Z,18.17
2023-04-15T22:18:14.877Z,18.73
2023-04-15T22:20:41.485Z,19.73
2023-04-15T22:23:08.837Z,21.70
2023-04-15T22:25:37.116Z,20.70
2023-04-15T22:28:06.988Z,21.60
2023-04-15T22:30:37.275Z,21.30
2023-04-15T22:33:03.722Z,20.57
2023-04-15T22:35:30.231Z,21.17
2023-04-15T22:37:56.650Z,20.90
2023-04-15T22:40:23.128Z,23.57
2023-04-15T22:42:49.546Z,24.57
2023-04-15T22:45:15.969Z,26.20
2023-04-15T22:47:42.452Z,28.43
2023-04-15T22:50:09.246Z,23.13
2023-04-15T22:52:35.609Z,24.90
2023-04-15T22:55:02.089Z,26.97
2023-04-15T22:57:28.455Z,29.23
2023-04-15T22:59:54.811Z,29.70
2023-04-15T23:02:21.621Z,29.00
2023-04-15T23:04:48.278Z,31.10
2023-04-15T23:07:14.693Z,31.77
2023-04-15T23:09:41.126Z,40.93
2023-04-15T23:12:07.926Z,41.50
2023-04-15T23:14:34.384Z,39.30
2023-04-15T23:17:00.960Z,45.80
2023-04-15T23:19:27.337Z,37.00
2023-04-15T23:21:53.772Z,39.70
2023-04-15T23:24:20.187Z,40.30
2023-04-15T23:26:46.643Z,37.13
2023-04-15T23:29:13.020Z,41.93
2023-04-15T23:31:41.403Z,42.00
2023-04-15T23:34:07.860Z,40.87
2023-04-15T23:36:34.229Z,42.30
2023-04-15T23:39:00.916Z,39.77
2023-04-15T23:41:27.223Z,43.43
2023-04-15T23:43:53.550Z,46.87
2023-04-15T23:46:20.150Z,57.57
2023-04-15T23:48:47.831Z,53.47
2023-04-15T23:51:14.459Z,55.27
2023-04-15T23:53:40.966Z,48.53
2023-04-15T23:56:07.544Z,49.07
2023-04-15T23:58:34.668Z,51.97
